Time;durP1;ratioP1;P1;durP2;ratioP2;P2;SDS_P1;SDS_P2;PMS_P1;PMS_P2;Temp;Humidity;BMP_temperature;BMP_pressure;BME280_temperature;BME280_humidity;BME280_pressure;Samples;Min_cycle;Max_cycle;Signal;HPM_P1;HPM_P2
2022/09/22 00:00:14;;;;;;;4.50;4.30;;;;;;;;;;5032184;28;20036;-72
2022/09/22 00:02:40;;;;;;;4.30;4.10;;;;;;;;;;5027177;28;20021;-73
2022/09/22 00:05:06;;;;;;;4.50;4.30;;;;;;;;;;5028652;28;20056;-74
2022/09/22 00:07:33;;;;;;;4.32;4.13;;;;;;;;;;5033366;28;20045;-73
2022/09/22 00:09:58;;;;;;;4.50;4.30;;;;;;;;;;5027268;28;20067;-73
2022/09/22 00:12:24;;;;;;;4.20;4.00;;;;;;;;;;5030473;28;20448;-72
2022/09/22 00:14:50;;;;;;;4.28;4.07;;;;;;;;;;5030990;28;20556;-73
2022/09/22 00:17:15;;;;;;;4.32;4.13;;;;;;;;;;5027209;28;20464;-74
2022/09/22 00:19:41;;;;;;;4.10;3.90;;;;;;;;;;5026499;28;20035;-72
2022/09/22 00:22:07;;;;;;;4.40;4.20;;;;;;;;;;5029684;28;20040;-71
2022/09/22 00:24:33;;;;;;;4.30;4.10;;;;;;;;;;5030305;28;20056;-73
2022/09/22 00:26:59;;;;;;;4.47;4.28;;;;;;;;;;5029220;28;20032;-73
2022/09/22 00:29:29;;;;;;;4.20;4.00;;;;;;;;;;5013117;28;20029;-73
2022/09/22 00:31:55;;;;;;;4.13;3.92;;;;;;;;;;5039023;28;20029;-72
2022/09/22 00:34:25;;;;;;;4.15;3.95;;;;;;;;;;5039854;28;20128;-73
2022/09/22 00:36:51;;;;;;;4.20;4.00;;;;;;;;;;5035295;28;20037;-73
2022/09/22 00:39:17;;;;;;;4.20;4.00;;;;;;;;;;5040079;28;20030;-73
2022/09/22 00:41:48;;;;;;;4.30;4.10;;;;;;;;;;5035269;28;20033;-73
2022/09/22 00:44:17;;;;;;;4.40;4.20;;;;;;;;;;5037004;28;20039;-72
2022/09/22 00:46:46;;;;;;;4.38;4.18;;;;;;;;;;5039925;28;20037;-74
2022/09/22 00:49:13;;;;;;;4.15;3.95;;;;;;;;;;5038208;28;20029;-73
2022/09/22 00:51:42;;;;;;;4.10;3.90;;;;;;;;;;5036491;28;20121;-72
2022/09/22 00:54:12;;;;;;;4.25;4.05;;;;;;;;;;5038185;28;20037;-72
2022/09/22 00:56:53;;;;;;;3.78;3.67;;;;;;;;;;5036214;28;20067;-73
2022/09/22 00:59:22;;;;;;;4.20;4.00;;;;;;;;;;5037442;28;20061;-72
2022/09/22 01:01:48;;;;;;;4.30;4.10;;;;;;;;;;5034919;28;20026;-73
2022/09/22 01:04:16;;;;;;;3.95;3.85;;;;;;;;;;5039132;28;20147;-73
2022/09/22 01:06:42;;;;;;;3.80;3.70;;;;;;;;;;5036270;28;20116;-73
2022/09/22 01:09:09;;;;;;;4.00;3.90;;;;;;;;;;5036979;28;20585;-72
2022/09/22 01:11:37;;;;;;;4.20;4.00;;;;;;;;;;5033588;28;20061;-73
2022/09/22 01:14:20;;;;;;;3.85;3.75;;;;;;;;;;5031597;28;20029;-72
2022/09/22 01:17:02;;;;;;;4.45;4.25;;;;;;;;;;5035289;28;20052;-72
2022/09/22 01:19:45;;;;;;;4.40;4.20;;;;;;;;;;5032977;28;20111;-72
2022/09/22 01:22:28;;;;;;;4.05;3.90;;;;;;;;;;5036611;28;20543;-72
2022/09/22 01:25:09;;;;;;;4.00;3.90;;;;;;;;;;5036063;28;20025;-73
2022/09/22 01:27:41;;;;;;;4.03;3.90;;;;;;;;;;5032886;28;20570;-73
2022/09/22 01:30:22;;;;;;;4.30;4.10;;;;;;;;;;5032756;28;20033;-72
2022/09/22 01:33:06;;;;;;;4.30;4.10;;;;;;;;;;5033063;28;20025;-73
2022/09/22 01:35:41;;;;;;;4.20;4.00;;;;;;;;;;5033653;28;20049;-73
2022/09/22 01:38:17;;;;;;;4.28;4.07;;;;;;;;;;5031892;28;20037;-73
2022/09/22 01:40:56;;;;;;;4.30;4.10;;;;;;;;;;5031450;28;20045;-72
2022/09/22 01:43:42;;;;;;;4.40;4.20;;;;;;;;;;5029150;28;20064;-73
2022/09/22 01:46:17;;;;;;;4.18;3.97;;;;;;;;;;5022067;28;20061;-73
2022/09/22 01:48:46;;;;;;;4.30;4.10;;;;;;;;;;5029078;28;20053;-72
2022/09/22 01:51:36;;;;;;;4.30;4.10;;;;;;;;;;5028795;28;20145;-73
2022/09/22 01:54:13;;;;;;;4.30;4.10;;;;;;;;;;5022127;28;20045;-73
2022/09/22 01:56:41;;;;;;;4.10;3.90;;;;;;;;;;5033560;28;20041;-73
2022/09/22 01:59:10;;;;;;;4.30;4.10;;;;;;;;;;5030199;28;20141;-72
2022/09/22 02:01:54;;;;;;;4.50;4.30;;;;;;;;;;5029690;28;20037;-73
2022/09/22 02:04:39;;;;;;;4.30;4.10;;;;;;;;;;5031948;28;20422;-73
2022/09/22 02:07:10;;;;;;;4.22;4.03;;;;;;;;;;5028610;28;20033;-72
2022/09/22 02:09:38;;;;;;;4.40;4.20;;;;;;;;;;5032342;28;20413;-72
2022/09/22 02:12:04;;;;;;;4.30;4.10;;;;;;;;;;5026048;28;20021;-73
2022/09/22 02:14:30;;;;;;;4.30;4.10;;;;;;;;;;5033347;28;20025;-73
2022/09/22 02:16:58;;;;;;;4.18;3.97;;;;;;;;;;5038714;28;20039;-73
2022/09/22 02:19:35;;;;;;;4.20;4.00;;;;;;;;;;5039337;28;20036;-73
2022/09/22 02:22:00;;;;;;;4.13;3.92;;;;;;;;;;5032020;28;20029;-73
2022/09/22 02:24:41;;;;;;;4.20;4.00;;;;;;;;;;5032623;28;20055;-72
2022/09/22 02:27:10;;;;;;;4.30;4.10;;;;;;;;;;5032572;28;20060;-73
2022/09/22 02:29:39;;;;;;;4.40;4.20;;;;;;;;;;5034477;28;20037;-72
2022/09/22 02:32:09;;;;;;;4.40;4.20;;;;;;;;;;5035972;28;20031;-73
2022/09/22 02:34:34;;;;;;;4.25;4.05;;;;;;;;;;5036147;28;20172;-73
2022/09/22 02:37:29;;;;;;;4.20;4.00;;;;;;;;;;5033311;28;20480;-73
2022/09/22 02:40:42;;;;;;;4.28;4.07;;;;;;;;;;4988010;28;20041;-72
2022/09/22 02:43:11;;;;;;;4.40;4.20;;;;;;;;;;4927145;29;20070;-72
2022/09/22 02:46:06;;;;;;;4.53;4.32;;;;;;;;;;4927825;29;20993;-72
2022/09/22 02:48:37;;;;;;;4.28;4.07;;;;;;;;;;4917622;29;20052;-73
2022/09/22 02:51:04;;;;;;;4.03;3.90;;;;;;;;;;4926769;29;20039;-73
2022/09/22 02:53:33;;;;;;;4.20;4.00;;;;;;;;;;4926130;29;20527;-73
2022/09/22 02:55:58;;;;;;;4.20;4.00;;;;;;;;;;4918256;29;20039;-72
2022/09/22 02:58:24;;;;;;;4.18;3.97;;;;;;;;;;4929829;29;20047;-72
2022/09/22 03:00:50;;;;;;;4.43;4.22;;;;;;;;;;4932110;29;20047;-72
2022/09/22 03:03:15;;;;;;;3.97;3.88;;;;;;;;;;4928875;29;20588;-73
2022/09/22 03:05:41;;;;;;;4.25;4.05;;;;;;;;;;4930896;29;20609;-73
2022/09/22 03:08:06;;;;;;;4.50;4.30;;;;;;;;;;4930246;29;20047;-73
2022/09/22 03:10:32;;;;;;;4.30;4.10;;;;;;;;;;4929531;29;20147;-72
2022/09/22 03:12:58;;;;;;;4.40;4.20;;;;;;;;;;4938063;28;20036;-71
2022/09/22 03:15:24;;;;;;;4.10;3.90;;;;;;;;;;5033169;28;20091;-71
2022/09/22 03:17:49;;;;;;;4.85;4.65;;;;;;;;;;5036218;28;20037;-71
2022/09/22 03:20:15;;;;;;;4.40;4.20;;;;;;;;;;5020808;28;20037;-72
2022/09/22 03:22:41;;;;;;;4.30;4.10;;;;;;;;;;5025836;28;20033;-71
2022/09/22 03:25:09;;;;;;;4.22;4.03;;;;;;;;;;5036043;28;20512;-71
2022/09/22 03:27:35;;;;;;;4.40;4.20;;;;;;;;;;5035317;28;20033;-71
2022/09/22 03:30:03;;;;;;;4.43;4.22;;;;;;;;;;5033347;28;20073;-71
2022/09/22 03:32:29;;;;;;;4.10;3.90;;;;;;;;;;5027327;28;20437;-71
2022/09/22 03:34:55;;;;;;;4.30;4.10;;;;;;;;;;5028071;28;20033;-72
2022/09/22 03:37:21;;;;;;;3.90;3.80;;;;;;;;;;5042230;28;20067;-71
2022/09/22 03:39:47;;;;;;;4.00;3.88;;;;;;;;;;5038232;28;20041;-71
2022/09/22 03:42:12;;;;;;;4.10;3.90;;;;;;;;;;5036894;28;20037;-71
2022/09/22 03:44:38;;;;;;;3.83;3.72;;;;;;;;;;5033670;28;20095;-71
2022/09/22 03:47:04;;;;;;;4.20;4.00;;;;;;;;;;5038048;28;20107;-72
2022/09/22 03:49:30;;;;;;;3.88;3.78;;;;;;;;;;5042364;28;20032;-72
2022/09/22 03:51:56;;;;;;;4.10;3.90;;;;;;;;;;5038405;28;20203;-71
2022/09/22 03:54:21;;;;;;;4.18;3.97;;;;;;;;;;5036967;28;20131;-71
2022/09/22 03:56:47;;;;;;;4.55;4.35;;;;;;;;;;5044592;28;20032;-71
2022/09/22 03:59:13;;;;;;;4.70;4.50;;;;;;;;;;5032648;28;20033;-72
2022/09/22 04:01:39;;;;;;;4.60;4.40;;;;;;;;;;5038708;28;20388;-72
2022/09/22 04:04:05;;;;;;;4.60;4.40;;;;;;;;;;5030811;28;20512;-72
2022/09/22 04:06:30;;;;;;;4.65;4.45;;;;;;;;;;5038562;28;20028;-72
2022/09/22 04:08:56;;;;;;;4.50;4.30;;;;;;;;;;5036699;28;20186;-71
2022/09/22 04:11:23;;;;;;;4.40;4.20;;;;;;;;;;5042237;28;20145;-71
2022/09/22 04:13:49;;;;;;;4.38;4.18;;;;;;;;;;5034704;28;20124;-71
2022/09/22 04:16:15;;;;;;;4.50;4.30;;;;;;;;;;5039230;28;20036;-71
2022/09/22 04:18:41;;;;;;;4.50;4.30;;;;;;;;;;5017407;28;20032;-71
2022/09/22 04:21:07;;;;;;;4.55;4.35;;;;;;;;;;5018773;28;20044;-71
2022/09/22 04:23:33;;;;;;;4.40;4.20;;;;;;;;;;5035644;28;20116;-71
2022/09/22 04:26:00;;;;;;;4.40;4.20;;;;;;;;;;5032768;28;20739;-71
2022/09/22 04:28:25;;;;;;;4.30;4.10;;;;;;;;;;5038344;28;20029;-71
2022/09/22 04:30:51;;;;;;;4.45;4.25;;;;;;;;;;5030170;28;20091;-71
2022/09/22 04:33:16;;;;;;;4.50;4.30;;;;;;;;;;5035381;28;20033;-71
2022/09/22 04:35:42;;;;;;;4.40;4.20;;;;;;;;;;5019910;28;20475;-71
2022/09/22 04:38:09;;;;;;;4.70;4.50;;;;;;;;;;5034719;28;20095;-71
2022/09/22 04:40:36;;;;;;;4.68;4.47;;;;;;;;;;5021400;28;20124;-72
2022/09/22 04:43:01;;;;;;;4.70;4.50;;;;;;;;;;5034865;28;20044;-69
2022/09/22 04:45:27;;;;;;;4.72;4.53;;;;;;;;;;5027364;28;20029;-70
2022/09/22 04:47:53;;;;;;;5.97;5.22;;;;;;;;;;5031180;28;20467;-72
2022/09/22 04:50:21;;;;;;;4.60;4.40;;;;;;;;;;5028308;28;20025;-72
2022/09/22 04:52:52;;;;;;;4.40;4.20;;;;;;;;;;5039117;28;20076;-72
2022/09/22 04:55:19;;;;;;;4.60;4.40;;;;;;;;;;5034661;28;20127;-73
2022/09/22 04:57:49;;;;;;;4.63;4.43;;;;;;;;;;5037692;28;20030;-73
2022/09/22 05:00:16;;;;;;;4.50;4.30;;;;;;;;;;5039087;28;20110;-72
2022/09/22 05:02:41;;;;;;;4.85;4.65;;;;;;;;;;5032406;28;20618;-72
2022/09/22 05:05:07;;;;;;;4.45;4.25;;;;;;;;;;5029120;28;20085;-73
2022/09/22 05:07:33;;;;;;;4.30;4.10;;;;;;;;;;5033789;28;20075;-73
2022/09/22 05:09:59;;;;;;;4.28;4.07;;;;;;;;;;5038756;28;20033;-73
2022/09/22 05:12:25;;;;;;;4.30;4.10;;;;;;;;;;5035167;28;20115;-72
2022/09/22 05:14:51;;;;;;;4.32;4.13;;;;;;;;;;5036056;28;20432;-73
2022/09/22 05:17:17;;;;;;;4.47;4.28;;;;;;;;;;5028790;28;20498;-73
2022/09/22 05:19:44;;;;;;;4.07;3.92;;;;;;;;;;5026219;28;20037;-72
2022/09/22 05:22:09;;;;;;;4.45;4.25;;;;;;;;;;5023919;28;20527;-73
2022/09/22 05:24:35;;;;;;;4.65;4.45;;;;;;;;;;5033057;28;20030;-73
2022/09/22 05:27:00;;;;;;;4.60;4.40;;;;;;;;;;5031991;28;20037;-73
2022/09/22 05:29:26;;;;;;;4.70;4.50;;;;;;;;;;5013027;28;20037;-73
2022/09/22 05:31:52;;;;;;;4.80;4.60;;;;;;;;;;5032219;28;20039;-73
2022/09/22 05:34:17;;;;;;;4.72;4.53;;;;;;;;;;5033563;28;20547;-72
2022/09/22 05:36:43;;;;;;;4.70;4.50;;;;;;;;;;5032850;28;20056;-73
2022/09/22 05:39:08;;;;;;;4.80;4.60;;;;;;;;;;5028130;28;20113;-72
2022/09/22 05:41:34;;;;;;;4.60;4.40;;;;;;;;;;5005521;28;20033;-72
2022/09/22 05:44:00;;;;;;;4.50;4.30;;;;;;;;;;5033221;28;20065;-73
2022/09/22 05:46:25;;;;;;;4.60;4.40;;;;;;;;;;5035875;28;20033;-72
2022/09/22 05:48:51;;;;;;;4.70;4.50;;;;;;;;;;5029300;28;20060;-73
2022/09/22 05:51:16;;;;;;;4.60;4.40;;;;;;;;;;5018318;28;20037;-72
2022/09/22 05:53:42;;;;;;;4.60;4.40;;;;;;;;;;5031717;28;20037;-73
2022/09/22 05:56:07;;;;;;;4.78;4.57;;;;;;;;;;5026728;28;20037;-73
2022/09/22 05:58:33;;;;;;;4.72;4.53;;;;;;;;;;5013263;28;20053;-72
2022/09/22 06:00:59;;;;;;;4.70;4.50;;;;;;;;;;5033999;28;20124;-72
2022/09/22 06:03:25;;;;;;;4.60;4.40;;;;;;;;;;5039998;28;20116;-73
2022/09/22 06:05:50;;;;;;;4.60;4.40;;;;;;;;;;5035953;28;20086;-74
2022/09/22 06:08:16;;;;;;;4.60;4.40;;;;;;;;;;5032055;28;20029;-73
2022/09/22 06:10:44;;;;;;;4.70;4.50;;;;;;;;;;5043520;28;20090;-73
2022/09/22 06:13:10;;;;;;;4.70;4.50;;;;;;;;;;5038476;28;20048;-73
2022/09/22 06:15:37;;;;;;;4.88;4.68;;;;;;;;;;5041178;28;20041;-73
2022/09/22 06:18:07;;;;;;;4.65;4.45;;;;;;;;;;5033033;28;20175;-73
2022/09/22 06:20:34;;;;;;;5.07;4.88;;;;;;;;;;5035049;28;20492;-75
2022/09/22 06:22:59;;;;;;;4.90;4.70;;;;;;;;;;5037187;28;20116;-73
2022/09/22 06:25:27;;;;;;;5.20;5.00;;;;;;;;;;5031047;28;20116;-75
2022/09/22 06:28:04;;;;;;;7.72;7.25;;;;;;;;;;5035248;28;20033;-74
2022/09/22 06:30:35;;;;;;;4.90;4.70;;;;;;;;;;5033995;28;20033;-71
2022/09/22 06:33:02;;;;;;;4.80;4.60;;;;;;;;;;5031781;28;20525;-71
2022/09/22 06:35:36;;;;;;;4.80;4.60;;;;;;;;;;5038329;28;20052;-74
2022/09/22 06:38:06;;;;;;;4.60;4.40;;;;;;;;;;5039091;28;20040;-71
2022/09/22 06:40:32;;;;;;;4.80;4.60;;;;;;;;;;5030833;28;20045;-73
2022/09/22 06:43:06;;;;;;;4.63;4.43;;;;;;;;;;5031686;28;20090;-73
2022/09/22 06:45:32;;;;;;;5.30;5.10;;;;;;;;;;5037920;28;20033;-73
2022/09/22 06:47:59;;;;;;;4.90;4.70;;;;;;;;;;5030468;28;20034;-73
2022/09/22 06:50:29;;;;;;;4.80;4.60;;;;;;;;;;5026975;28;20033;-75
2022/09/22 06:53:05;;;;;;;5.10;4.90;;;;;;;;;;5029616;28;20048;-72
2022/09/22 06:55:32;;;;;;;5.20;5.00;;;;;;;;;;5044446;28;20048;-72
2022/09/22 06:57:59;;;;;;;5.38;5.18;;;;;;;;;;5031737;28;20598;-73
2022/09/22 07:00:31;;;;;;;5.30;5.10;;;;;;;;;;5029281;28;20065;-73
2022/09/22 07:03:21;;;;;;;5.22;5.03;;;;;;;;;;5027279;28;20492;-72
2022/09/22 07:06:00;;;;;;;5.40;5.20;;;;;;;;;;5030613;28;20508;-73
2022/09/22 07:08:28;;;;;;;6.00;5.70;;;;;;;;;;5025673;28;20084;-72
2022/09/22 07:10:55;;;;;;;5.60;5.40;;;;;;;;;;5024119;28;20116;-72
2022/09/22 07:13:22;;;;;;;5.90;5.60;;;;;;;;;;5037562;28;20147;-71
2022/09/22 07:15:47;;;;;;;5.72;5.47;;;;;;;;;;5039615;28;20037;-71
2022/09/22 07:18:13;;;;;;;5.80;5.50;;;;;;;;;;5032359;28;20049;-72
2022/09/22 07:20:39;;;;;;;5.90;5.60;;;;;;;;;;5030488;28;20041;-72
2022/09/22 07:23:20;;;;;;;6.03;5.72;;;;;;;;;;5036673;28;20396;-72
2022/09/22 07:25:55;;;;;;;6.00;5.70;;;;;;;;;;5037115;28;20112;-73
2022/09/22 07:28:24;;;;;;;6.07;5.78;;;;;;;;;;5037267;28;20055;-72
2022/09/22 07:30:50;;;;;;;5.88;5.57;;;;;;;;;;5024511;28;20087;-72
2022/09/22 07:33:18;;;;;;;6.20;5.90;;;;;;;;;;5021200;28;20038;-72
2022/09/22 07:35:44;;;;;;;5.80;5.50;;;;;;;;;;5041763;28;20450;-72
2022/09/22 07:38:10;;;;;;;6.15;5.85;;;;;;;;;;5042270;28;20035;-72
2022/09/22 07:40:35;;;;;;;5.30;5.10;;;;;;;;;;5035784;28;20504;-71
2022/09/22 07:43:01;;;;;;;5.82;5.53;;;;;;;;;;5035252;28;20034;-72
2022/09/22 07:45:27;;;;;;;6.13;5.82;;;;;;;;;;5038753;28;20053;-71
2022/09/22 07:50:36;;;;;;;6.15;5.85;;;;;;;;;;5041503;28;20404;-72
2022/09/22 07:53:03;;;;;;;6.47;6.18;;;;;;;;;;5034507;28;20041;-71
2022/09/22 07:55:28;;;;;;;6.50;6.20;;;;;;;;;;5035837;28;20453;-72
2022/09/22 07:57:58;;;;;;;6.47;6.18;;;;;;;;;;5030425;28;20111;-72
2022/09/22 08:00:26;;;;;;;6.53;6.22;;;;;;;;;;5035127;28;20068;-71
2022/09/22 08:02:54;;;;;;;6.53;6.22;;;;;;;;;;5028564;28;20111;-71
2022/09/22 08:05:22;;;;;;;6.70;6.40;;;;;;;;;;5033818;28;20037;-71
2022/09/22 08:07:47;;;;;;;6.47;6.18;;;;;;;;;;5038767;28;20065;-71
2022/09/22 08:10:14;;;;;;;6.30;6.00;;;;;;;;;;5028058;28;20527;-71
2022/09/22 08:12:39;;;;;;;6.35;6.05;;;;;;;;;;5034983;28;20477;-71
2022/09/22 08:15:05;;;;;;;6.43;6.13;;;;;;;;;;5005455;28;20036;-71
2022/09/22 08:17:31;;;;;;;6.55;6.25;;;;;;;;;;5036220;28;20140;-71
2022/09/22 08:19:58;;;;;;;6.30;6.00;;;;;;;;;;5040721;28;20033;-71
2022/09/22 08:22:23;;;;;;;6.30;6.00;;;;;;;;;;5029155;28;20037;-70
2022/09/22 08:24:49;;;;;;;6.20;5.90;;;;;;;;;;5034580;28;20040;-71
2022/09/22 08:27:14;;;;;;;6.10;5.80;;;;;;;;;;5033438;28;20444;-71
2022/09/22 08:29:42;;;;;;;6.20;5.90;;;;;;;;;;5030170;28;20041;-71
2022/09/22 08:32:08;;;;;;;5.90;5.60;;;;;;;;;;5036554;28;20049;-70
2022/09/22 08:34:33;;;;;;;5.70;5.45;;;;;;;;;;5030742;28;20420;-71
2022/09/22 08:36:59;;;;;;;6.43;6.13;;;;;;;;;;5021387;28;20043;-70
2022/09/22 08:39:24;;;;;;;6.00;5.70;;;;;;;;;;5034933;28;20104;-71
2022/09/22 08:42:08;;;;;;;5.97;5.68;;;;;;;;;;5034161;28;20033;-71
2022/09/22 08:44:41;;;;;;;5.50;5.30;;;;;;;;;;5036305;28;20120;-71
2022/09/22 08:47:15;;;;;;;6.47;6.18;;;;;;;;;;5022614;28;20420;-71
2022/09/22 08:52:48;;;;;;;6.30;6.00;;;;;;;;;;5035478;28;20481;-72
2022/09/22 08:55:22;;;;;;;5.82;5.53;;;;;;;;;;5039608;28;20040;-69
2022/09/22 08:58:12;;;;;;;6.00;5.70;;;;;;;;;;5017452;28;20109;-71
2022/09/22 09:01:15;;;;;;;6.00;5.70;;;;;;;;;;5033691;28;20099;-71
2022/09/22 09:04:15;;;;;;;5.80;5.50;;;;;;;;;;5039263;28;20075;-72
2022/09/22 09:06:52;;;;;;;5.90;5.60;;;;;;;;;;4982438;28;20045;-74
2022/09/22 09:09:44;;;;;;;5.95;5.65;;;;;;;;;;5021453;28;20029;-72
2022/09/22 09:12:16;;;;;;;6.40;6.10;;;;;;;;;;5034341;28;20653;-71
2022/09/22 09:15:23;;;;;;;6.55;6.25;;;;;;;;;;5031321;28;20033;-72
2022/09/22 09:17:53;;;;;;;6.32;6.03;;;;;;;;;;5008495;28;20037;-74
2022/09/22 09:20:34;;;;;;;6.35;6.05;;;;;;;;;;5030809;28;20072;-72
2022/09/22 09:23:08;;;;;;;6.30;6.00;;;;;;;;;;5035432;28;20112;-72
2022/09/22 09:25:41;;;;;;;6.47;6.18;;;;;;;;;;5039282;28;20083;-71
2022/09/22 09:28:21;;;;;;;6.63;6.32;;;;;;;;;;5031292;28;20110;-72
2022/09/22 09:30:59;;;;;;;6.50;6.20;;;;;;;;;;5039276;28;20033;-74
2022/09/22 09:33:24;;;;;;;6.60;6.30;;;;;;;;;;5020540;28;20055;-71
2022/09/22 09:35:52;;;;;;;6.50;6.20;;;;;;;;;;5040232;28;20037;-73
2022/09/22 09:38:43;;;;;;;6.43;6.13;;;;;;;;;;5012231;28;20052;-73
2022/09/22 09:41:16;;;;;;;6.70;6.40;;;;;;;;;;5022420;28;20087;-71
2022/09/22 09:43:44;;;;;;;6.78;6.47;;;;;;;;;;5029598;28;20048;-73
2022/09/22 09:46:25;;;;;;;6.90;6.60;;;;;;;;;;5036959;28;20309;-72
2022/09/22 09:49:13;;;;;;;6.75;6.45;;;;;;;;;;5036911;28;20405;-71
2022/09/22 09:51:43;;;;;;;6.40;6.10;;;;;;;;;;5030384;28;20041;-72
2022/09/22 09:54:12;;;;;;;6.57;6.28;;;;;;;;;;5031971;28;20083;-73
2022/09/22 09:57:00;;;;;;;6.60;6.30;;;;;;;;;;5028488;28;20034;-70
2022/09/22 10:02:16;;;;;;;6.47;6.18;;;;;;;;;;5036195;28;20033;-73
2022/09/22 10:04:49;;;;;;;6.43;6.13;;;;;;;;;;5036534;28;20040;-71
2022/09/22 10:07:19;;;;;;;6.53;6.22;;;;;;;;;;5031337;28;20523;-71
2022/09/22 10:09:47;;;;;;;6.53;6.22;;;;;;;;;;5035377;28;20098;-73
2022/09/22 10:12:24;;;;;;;6.50;6.20;;;;;;;;;;5038864;28;20041;-73
2022/09/22 10:14:54;;;;;;;6.13;5.82;;;;;;;;;;5028281;28;20428;-72
2022/09/22 10:17:38;;;;;;;6.00;5.70;;;;;;;;;;5025412;28;20928;-72
2022/09/22 10:20:27;;;;;;;6.50;6.20;;;;;;;;;;5027922;28;20037;-72
2022/09/22 10:22:54;;;;;;;6.20;5.90;;;;;;;;;;5032263;28;20100;-72
2022/09/22 10:25:24;;;;;;;6.30;6.00;;;;;;;;;;5018043;28;20033;-72
2022/09/22 10:28:03;;;;;;;6.70;6.40;;;;;;;;;;5022270;28;20064;-72
2022/09/22 10:30:36;;;;;;;6.60;6.30;;;;;;;;;;5025061;28;20032;-73
2022/09/22 10:33:04;;;;;;;6.28;5.97;;;;;;;;;;5027350;28;20481;-73
2022/09/22 10:35:32;;;;;;;6.78;6.47;;;;;;;;;;5028298;28;20038;-74
2022/09/22 10:38:08;;;;;;;5.97;5.68;;;;;;;;;;5036092;28;20029;-74
2022/09/22 10:40:38;;;;;;;6.13;5.82;;;;;;;;;;5033149;28;20045;-74
2022/09/22 10:43:19;;;;;;;6.28;5.97;;;;;;;;;;5034762;28;20216;-73
2022/09/22 10:46:19;;;;;;;6.60;6.30;;;;;;;;;;5027175;28;20035;-73
2022/09/22 10:48:54;;;;;;;6.50;6.20;;;;;;;;;;4998932;28;20053;-72
2022/09/22 10:51:46;;;;;;;6.15;5.85;;;;;;;;;;5025569;28;21394;-72
2022/09/22 10:54:34;;;;;;;6.40;6.10;;;;;;;;;;5031990;28;20091;-71
2022/09/22 10:57:08;;;;;;;6.70;6.40;;;;;;;;;;5020874;28;20046;-72
2022/09/22 11:00:00;;;;;;;6.35;6.05;;;;;;;;;;5031958;28;20041;-71
2022/09/22 11:02:58;;;;;;;6.43;6.13;;;;;;;;;;5030915;28;20026;-72
2022/09/22 11:14:34;;;;;;;6.00;5.70;;;;;;;;;;5040031;28;20056;-74
2022/09/22 11:17:05;;;;;;;6.00;5.70;;;;;;;;;;5035196;28;20057;-75
2022/09/22 11:20:21;;;;;;;6.47;6.18;;;;;;;;;;5035868;28;20039;-73
2022/09/22 11:23:20;;;;;;;6.32;6.03;;;;;;;;;;5001366;28;20045;-72
2022/09/22 11:26:16;;;;;;;6.15;5.85;;;;;;;;;;5036552;28;20108;-72
2022/09/22 11:29:08;;;;;;;6.13;5.82;;;;;;;;;;5020239;28;20037;-73
2022/09/22 11:31:46;;;;;;;6.25;5.95;;;;;;;;;;5020680;28;20117;-71
2022/09/22 11:34:24;;;;;;;6.30;6.00;;;;;;;;;;5033077;28;20090;-71
2022/09/22 11:37:24;;;;;;;6.30;6.00;;;;;;;;;;5028173;28;20091;-71
2022/09/22 11:39:59;;;;;;;5.97;5.68;;;;;;;;;;5031492;28;20059;-70
2022/09/22 11:42:49;;;;;;;6.22;5.93;;;;;;;;;;5030634;28;20039;-71
2022/09/22 11:45:27;;;;;;;6.07;5.78;;;;;;;;;;5032673;28;20381;-71
2022/09/22 11:48:14;;;;;;;6.55;6.25;;;;;;;;;;5034357;28;20078;-71
2022/09/22 11:50:46;;;;;;;6.30;6.00;;;;;;;;;;5034677;28;20045;-72
2022/09/22 11:53:22;;;;;;;6.32;6.03;;;;;;;;;;5032628;28;20445;-73
2022/09/22 11:55:55;;;;;;;6.80;6.50;;;;;;;;;;5031329;28;20041;-71
2022/09/22 11:58:24;;;;;;;6.70;6.40;;;;;;;;;;5038325;28;20084;-71
2022/09/22 12:01:03;;;;;;;;;;;;;;;;;;5037530;28;20116;-72
2022/09/22 12:03:38;;;;;;;7.10;6.80;;;;;;;;;;5038198;28;19913;-73
2022/09/22 12:06:07;;;;;;;6.85;6.55;;;;;;;;;;5030910;28;20120;-72
2022/09/22 12:08:49;;;;;;;6.75;6.45;;;;;;;;;;5030699;28;20037;-71
2022/09/22 12:11:16;;;;;;;7.07;6.78;;;;;;;;;;5032684;28;20043;-72
2022/09/22 12:13:46;;;;;;;6.93;6.63;;;;;;;;;;5034300;28;20087;-71
2022/09/22 12:16:30;;;;;;;6.57;6.28;;;;;;;;;;5038366;28;20025;-70
2022/09/22 12:19:05;;;;;;;6.70;6.40;;;;;;;;;;5036212;28;20032;-71
2022/09/22 12:22:13;;;;;;;6.70;6.40;;;;;;;;;;5038874;28;20037;-72
2022/09/22 12:24:39;;;;;;;7.10;6.80;;;;;;;;;;5035104;28;20041;-72
2022/09/22 12:27:22;;;;;;;6.80;6.50;;;;;;;;;;5038654;28;20067;-72
2022/09/22 12:29:57;;;;;;;6.57;6.28;;;;;;;;;;5035339;28;20473;-73
2022/09/22 12:32:28;;;;;;;7.30;6.90;;;;;;;;;;5033309;28;20029;-74
2022/09/22 12:34:57;;;;;;;6.75;6.45;;;;;;;;;;5034054;28;20044;-72
2022/09/22 12:37:29;;;;;;;6.55;6.25;;;;;;;;;;5033486;28;20045;-72
2022/09/22 12:40:12;;;;;;;6.70;6.40;;;;;;;;;;5025655;28;20476;-73
2022/09/22 12:42:40;;;;;;;6.88;6.57;;;;;;;;;;5032985;28;20038;-71
2022/09/22 12:45:08;;;;;;;6.65;6.35;;;;;;;;;;5041466;28;20041;-73
2022/09/22 12:47:37;;;;;;;7.03;6.63;;;;;;;;;;5029002;28;20072;-73
2022/09/22 12:50:26;;;;;;;6.60;6.30;;;;;;;;;;5012636;28;20445;-72
2022/09/22 12:52:52;;;;;;;6.75;6.45;;;;;;;;;;5032583;28;20037;-73
2022/09/22 12:55:27;;;;;;;6.90;6.60;;;;;;;;;;5034362;28;20061;-74
2022/09/22 12:57:58;;;;;;;6.68;6.38;;;;;;;;;;5017847;28;20136;-73
2022/09/22 13:00:42;;;;;;;7.00;6.70;;;;;;;;;;5040888;28;20075;-73
2022/09/22 13:03:26;;;;;;;7.15;6.82;;;;;;;;;;5027469;28;20094;-71
2022/09/22 13:06:22;;;;;;;7.13;6.82;;;;;;;;;;5028084;28;20064;-72
2022/09/22 13:08:47;;;;;;;7.05;6.75;;;;;;;;;;5035051;28;20068;-73
2022/09/22 13:11:13;;;;;;;6.90;6.60;;;;;;;;;;5037643;28;20056;-72
2022/09/22 13:13:47;;;;;;;7.28;6.90;;;;;;;;;;5039344;28;20085;-72
2022/09/22 13:16:15;;;;;;;7.30;6.90;;;;;;;;;;5028528;28;20738;-72
2022/09/22 13:18:43;;;;;;;6.55;6.25;;;;;;;;;;5039135;28;20549;-72
2022/09/22 13:21:12;;;;;;;6.68;6.38;;;;;;;;;;5035737;28;20041;-72
2022/09/22 13:23:50;;;;;;;7.28;6.90;;;;;;;;;;5034576;28;20171;-71
2022/09/22 13:26:37;;;;;;;7.00;6.70;;;;;;;;;;5035653;28;20674;-72
2022/09/22 13:29:15;;;;;;;6.40;6.10;;;;;;;;;;5012279;28;20044;-72
2022/09/22 13:31:47;;;;;;;6.50;6.20;;;;;;;;;;5033659;28;20041;-72
2022/09/22 13:34:34;;;;;;;6.65;6.35;;;;;;;;;;5032539;28;20041;-73
2022/09/22 13:37:12;;;;;;;6.95;6.65;;;;;;;;;;5017830;28;20485;-72
2022/09/22 13:39:41;;;;;;;6.50;6.20;;;;;;;;;;5035981;28;20044;-71
2022/09/22 13:42:18;;;;;;;6.47;6.18;;;;;;;;;;5030757;28;20045;-72
2022/09/22 13:44:47;;;;;;;6.50;6.20;;;;;;;;;;5031270;28;20025;-72
2022/09/22 13:47:20;;;;;;;6.47;6.18;;;;;;;;;;5033685;28;20049;-72
2022/09/22 13:49:50;;;;;;;6.50;6.20;;;;;;;;;;5025897;28;20041;-71
2022/09/22 13:52:22;;;;;;;6.53;6.22;;;;;;;;;;5034290;28;20029;-70
2022/09/22 13:54:55;;;;;;;6.65;6.35;;;;;;;;;;5032107;28;20033;-71
2022/09/22 13:57:27;;;;;;;6.38;6.07;;;;;;;;;;5032795;28;20152;-70
2022/09/22 13:59:56;;;;;;;6.50;6.20;;;;;;;;;;5024563;28;20038;-72
2022/09/22 14:02:23;;;;;;;6.60;6.30;;;;;;;;;;5033386;28;20032;-71
2022/09/22 14:04:51;;;;;;;6.72;6.43;;;;;;;;;;5027051;28;20551;-72
2022/09/22 14:07:20;;;;;;;6.57;6.28;;;;;;;;;;5035903;28;20251;-71
2022/09/22 14:09:46;;;;;;;6.60;6.30;;;;;;;;;;5028563;28;20519;-72
2022/09/22 14:12:12;;;;;;;6.60;6.30;;;;;;;;;;5028302;28;20044;-71
2022/09/22 14:14:38;;;;;;;6.88;6.57;;;;;;;;;;5031195;28;20045;-71
2022/09/22 14:17:22;;;;;;;6.70;6.40;;;;;;;;;;5030029;28;20417;-72
2022/09/22 14:19:54;;;;;;;6.50;6.20;;;;;;;;;;5026774;28;20077;-71
2022/09/22 14:22:25;;;;;;;6.70;6.40;;;;;;;;;;5031951;28;20455;-73
2022/09/22 14:24:56;;;;;;;6.60;6.30;;;;;;;;;;5032548;28;20116;-71
2022/09/22 14:27:27;;;;;;;6.88;6.57;;;;;;;;;;5025433;28;20033;-72
2022/09/22 14:29:54;;;;;;;6.80;6.50;;;;;;;;;;5031765;28;20130;-73
2022/09/22 14:32:43;;;;;;;6.93;6.63;;;;;;;;;;5032692;28;20032;-71
2022/09/22 14:35:19;;;;;;;6.32;6.03;;;;;;;;;;5030059;28;20037;-72
2022/09/22 14:37:50;;;;;;;6.35;6.05;;;;;;;;;;5012029;28;20254;-72
2022/09/22 14:40:21;;;;;;;6.47;6.18;;;;;;;;;;5032001;28;20485;-72
2022/09/22 14:42:58;;;;;;;6.82;6.53;;;;;;;;;;5038835;28;20056;-72
2022/09/22 14:45:26;;;;;;;6.50;6.20;;;;;;;;;;5019119;28;20029;-71
2022/09/22 14:48:17;;;;;;;6.68;6.38;;;;;;;;;;5033662;28;20171;-73
2022/09/22 14:50:56;;;;;;;6.57;6.28;;;;;;;;;;5032290;28;20110;-72
2022/09/22 14:53:40;;;;;;;6.70;6.40;;;;;;;;;;5027594;28;20047;-71
2022/09/22 14:56:21;;;;;;;6.20;5.90;;;;;;;;;;5032434;28;20041;-73
2022/09/22 14:58:51;;;;;;;6.40;6.10;;;;;;;;;;5023681;28;20041;-70
2022/09/22 15:04:23;;;;;;;6.38;6.07;;;;;;;;;;5034667;28;20040;-72
2022/09/22 15:06:51;;;;;;;6.30;6.00;;;;;;;;;;5032743;28;20036;-70
2022/09/22 15:09:39;;;;;;;6.07;5.78;;;;;;;;;;5028935;28;20071;-72
2022/09/22 15:12:05;;;;;;;6.00;5.70;;;;;;;;;;5028462;28;20423;-72
2022/09/22 15:14:33;;;;;;;7.13;6.30;;;;;;;;;;5031374;28;20065;-71
2022/09/22 15:18:12;;;;;;;6.30;6.00;;;;;;;;;;5030139;28;20171;-71
2022/09/22 15:19:56;;;;;;;5.88;5.57;;;;;;;;;;5025111;28;20411;-70
2022/09/22 15:22:23;;;;;;;6.07;5.78;;;;;;;;;;5019390;28;20040;-70
2022/09/22 15:24:50;;;;;;;5.90;5.60;;;;;;;;;;5023026;28;20408;-70
2022/09/22 15:27:16;;;;;;;6.10;5.80;;;;;;;;;;5030154;28;20041;-71
2022/09/22 15:29:43;;;;;;;5.85;5.55;;;;;;;;;;5022894;28;20037;-72
2022/09/22 15:32:09;;;;;;;6.00;5.70;;;;;;;;;;5035066;28;20437;-72